This is the latest recevied weather packets stored in our database for station/object W6SNO-1. If no packets are shown the sender has not sent any weather packets the latest 1 day(s).
| Time | Temp. | Humidity | Pressure | Rain* | Wind** | Luminosity | Snow |
|---|---|---|---|---|---|---|---|
| 1777990997 | 11.67° C | 77% | 1015 hPa | 0 mm | 0 m/s | 26 W/m² | - |
| 1777990694 | 12.22° C | 77% | 1015 hPa | 0 mm | 0 m/s | 18 W/m² | - |
| 1777990392 | 12.22° C | 85% | 1015.1 hPa | 0 mm | 0 m/s | 17 W/m² | - |
| 1777990088 | 11.11° C | 80% | 1015.1 hPa | 0 mm | 0 m/s | 13 W/m² | - |
| 1777989779 | 11.11° C | 82% | 1015.1 hPa | 0 mm | 0 m/s | 9 W/m² | - |
| 1777989476 | 11.11° C | 82% | 1015.2 hPa | 0 mm | 0 m/s | 8 W/m² | - |
| 1777989172 | 11.67° C | 81% | 1014.7 hPa | 0 mm | 0 m/s | 8 W/m² | - |
| 1777988868 | 11.67° C | 78% | 1015 hPa | 0 mm | 0 m/s | 6 W/m² | - |
| 1777988566 | 12.78° C | 87% | 1015 hPa | 0 mm | 0 m/s | 3 W/m² | - |
| 1777988262 | 12.22° C | 88% | 1015.2 hPa | 0 mm | 0 m/s | 3 W/m² | - |
| 1777987958 | 11.11° C | 82% | 1015 hPa | 0 mm | 0 m/s | 2 W/m² | - |
| 1777987654 | 11.11° C | 81% | 1015 hPa | 0 mm | 0 m/s | 2 W/m² | - |
| 1777987352 | 10.56° C | 81% | 1015 hPa | 0 mm | 0 m/s | 2 W/m² | - |
| 1777987049 | 11.11° C | 80% | 1014.5 hPa | 0 mm | 0 m/s | 1 W/m² | - |
| 1777986746 | 11.11° C | 80% | 1014.8 hPa | 0 mm | 0 m/s | 1 W/m² | - |
| 1777986444 | 11.11° C | 80% | 1014.7 hPa | 0 mm | 0 m/s | 1 W/m² | - |
| 1777986142 | 11.67° C | 79% | 1014.9 hPa | 0 mm | 0 m/s | 0 W/m² | - |
| 1777985838 | 11.67° C | 80% | 1014.8 hPa | 0 mm | 0 m/s | 0 W/m² | - |
| 1777985536 | 11.67° C | 80% | 1015 hPa | 0 mm | 0 m/s | 0 W/m² | - |
| 1777985232 | 11.11° C | 79% | 1015 hPa | 0 mm | 0 m/s | 0 W/m² | - |
| 1777984929 | 11.11° C | 79% | 1015.1 hPa | 0 mm | 0 m/s | 0 W/m² | - |
| 1777984625 | 11.11° C | 80% | 1014.9 hPa | 0 mm | 0 m/s | 0 W/m² | - |
| 1777984322 | 11.11° C | 79% | 1015.2 hPa | 0 mm | 0 m/s | 0 W/m² | - |
| 1777984018 | 11.11° C | 80% | 1015.1 hPa | 0 mm | 0 m/s | 0 W/m² | - |
| 1777983715 | 11.11° C | 80% | 1015 hPa | 0 mm | 0 m/s | 0 W/m² | - |
* Rain latest hour (hover to see other rain measurements)
** Current wind speed in m/s (hover to see current wind gust speed)